Pays
Station

 

Conditions  météo  pour  Monbaca Benguela  -  Angola    Angola

  
31 °C
    
 
 

METAR pour Monbaca Benguela :

FNBG 211400Z 33006KT 9999 SCT020 BKN100 31/22 Q1011

 

Voici le bulletin pour Monbaca Benguela - Angola.
 
Le bulletin a été fait il y a 9 heures et 58 minutes, à 14:00 UTC .
Le vent soufflait à la vitesse de 3.1 mètres par seconde de Nord/Nord-ouest (330°).
 
La température était de 31 °C, avec un point de rosée à 22 °C.
La température ressentie était de 35 °C.
 
La pression atmosphérique était de 1011 hPa.
L'humidité relative était de 58.9%.
 
Il y avait 3 à 4/8ème de nébulosité à une hauteur de 610 mètres et 5 à 7/8ème de nébulosité à une hauteur de 3048 mètres.
 
La visibilité globale était de supérieure à 10 kilomètres.
 

 
 
 

Pays :   A   B   C   D   E   F   G   H   I   J   K   L   M   N   O   P   Q   R   S   T   U   V   W   Y   Z

 

Partenaires :  Info Météo avec Met'info
Météo Marine avec MeteoMarine.net
Infos Site  |  Infos Légales  |  Crédits  |  Confidentialité
Contactez-nous  |  Ajouter aux favoris
© 2013-2019 METAR - Tous droits réservés